Terminal Aerodrome Forecast
Issued by NWS

Home | Current Version | Previous Version | Text Only | Print | Product List | Glossary On
Versions: 1 2 3 4 5 6 7 8 9 10 11 12 13 14 15 16 17 18 19 20 21
000
FTUS42 KJAX 270206 AAA
TAFVQQ
TAF AMD
KVQQ 270206Z 2702/2724 00000KT P6SM SCT020 BKN040
      TEMPO 2702/2706 BKN020
     FM270700 00000KT 5SM BR SCT015 BKN250
     FM271100 00000KT P6SM SCT012 BKN100
     FM271400 12010KT P6SM SCT035 SCT200=

USA.gov is the U.S. government's official web portal to all federal, state and local government web resources and services.